Wednesday, February 21, 2018, 8:17 PM EST
Back to Local

KACK, Nantucket Memorial Airport

Location: Nantucket, MA, United States Lat: 41.25
Local Time: 8:17 PM EST ( 1:17 GMT) Lon: -70.067
Time Zone: US/Eastern Elev: 49 ft

Show me the last for .
Show Coded

Time T Td Feel RH Dir Speed Gust Alt SLP Vis Weather Sky Remarks
2018-02-21 19:53 45 45 38 100 220° 16 - 30.27 30.27 0 FG VV002 None
2018-02-21 18:53 45 45 38 100 220° 15 - 30.26 30.26 0 FG VV002 6-hr Min Temp (7pm): 45.0°F
6-hr Max Temp (7pm): 48.9°F
2018-02-21 17:53 46 46 39 100 220° 16 - 30.26 30.26 0 FG VV002 None
2018-02-21 16:53 46 46 39 100 220° 17 - 30.25 30.24 0 FG VV002 None
2018-02-21 15:53 48 48 41 100 230° 18 - 30.24 30.24 0 FG VV002 None
2018-02-21 14:53 48 48 42 100 230° 17 - 30.24 30.24 0 FG VV002 None
2018-02-21 13:53 46 46 40 100 220° 14 - 30.24 30.24 0 FG VV002 None
2018-02-21 12:53 46 46 40 100 210° 14 - 30.27 30.27 0 FG VV002 6-hr Min Temp (1pm): 46.0°F
6-hr Max Temp (1pm): 48.0°F
2018-02-21 11:53 47 47 41 100 220° 15 - 30.30 30.30 0 FG VV002 None
2018-02-21 10:53 47 47 41 100 230° 14 - 30.32 30.32 0 FG VV002 None
2018-02-21 09:53 47 47 40 100 240° 16 - 30.33 30.32 0 FG VV002 None
2018-02-21 08:53 47 47 40 100 230° 20 - 30.33 30.33 0 FG VV002 None
2018-02-21 07:53 47 47 39 100 240° 21 - 30.32 30.32 0 FG VV002 None
2018-02-21 06:53 47 47 40 100 230° 20 - 30.30 30.30 0 FG VV002 6-hr Min Temp (7am): 44.1°F
6-hr Max Temp (7am): 46.9°F
2018-02-21 06:10 46 46 40 100 230° 15 - 30.31 - 0 FG VV002 None
2018-02-21 05:53 46 46 40 100 220° 14 - 30.31 30.31 0 FG VV002 None
2018-02-21 04:53 44 44 40 100 220° 8 - 30.33 30.33 0 FG VV002 None
2018-02-21 03:53 45 45 39 100 230° 12 - 30.33 30.33 0 FG VV002 None
2018-02-21 02:53 44 44 39 100 220° 10 - 30.34 30.34 0 FG VV002 None
2018-02-21 01:53 45 45 39 100 230° 13 - 30.35 30.35 0 FG VV002 None
2018-02-21 00:53 46 46 40 100 240° 15 - 30.36 30.36 0 FG VV002 6-hr Min Temp (1am): 44.1°F
6-hr Max Temp (1am): 46.0°F
2018-02-20 23:53 46 46 40 100 240° 15 - 30.36 30.36 0 FG VV002 24-hr Min Temp (12am): 44.1°F
24-hr Max Temp (12am): 48.0°F
2018-02-20 23:07 45 45 39 100 230° 12 - 30.36 - 0 FG VV002 None
2018-02-20 22:53 45 45 38 100 240° 15 - 30.36 30.36 0 FG VV002 None
2018-02-20 21:53 45 45 38 100 230° 17 - 30.36 30.35 0 FG VV002 None
2018-02-20 21:48 45 45 37 100 230° 17 - 30.36 - 0 FG VV002 None
2018-02-20 20:53 44 44 37 100 230° 15 - 30.35 30.35 0 FG VV002 None
2018-02-20 20:46 44 44 37 100 220° 16 - 30.35 - 0 FG VV002 None

Support USWX by starting your Amazon purchase here.